Time;durP1;ratioP1;P1;durP2;ratioP2;P2;SDS_P1;SDS_P2;PMS_P1;PMS_P2;Temp;Humidity;BMP_temperature;BMP_pressure;BME280_temperature;BME280_humidity;BME280_pressure;Samples;Min_cycle;Max_cycle;Signal;HPM_P1;HPM_P2
2021/04/22 00:02:06;;;;;;;14.60;2.33;;;5.30;99.90;;;;;;5093284;28;20287;-79
2021/04/22 00:04:33;;;;;;;19.43;2.30;;;5.30;99.90;;;;;;5092928;28;20201;-80
2021/04/22 00:06:59;;;;;;;15.90;2.47;;;5.30;99.90;;;;;;5093046;28;20689;-80
2021/04/22 00:09:26;;;;;;;22.27;3.10;;;5.20;99.90;;;;;;5094384;28;20231;-79
2021/04/22 00:11:52;;;;;;;13.83;2.67;;;5.30;99.90;;;;;;5092820;28;20649;-79
2021/04/22 00:14:19;;;;;;;14.60;2.50;;;5.30;99.90;;;;;;5093262;28;20181;-79
2021/04/22 00:16:46;;;;;;;27.47;3.93;;;5.20;99.90;;;;;;5092491;28;20664;-79
2021/04/22 00:19:12;;;;;;;14.47;2.73;;;5.20;99.90;;;;;;5092466;28;20195;-80
2021/04/22 00:21:40;;;;;;;17.47;2.80;;;5.10;99.90;;;;;;5092604;28;20199;-80
2021/04/22 00:24:07;;;;;;;13.87;2.83;;;5.10;99.90;;;;;;5092563;28;20195;-80
2021/04/22 00:26:33;;;;;;;14.90;2.30;;;5.10;99.90;;;;;;5092786;28;20218;-79
2021/04/22 00:29:00;;;;;;;18.27;3.10;;;5.00;99.90;;;;;;5092774;28;20196;-80
2021/04/22 00:31:26;;;;;;;19.17;2.63;;;5.10;99.90;;;;;;5092526;28;20207;-81
2021/04/22 00:33:53;;;;;;;19.43;3.07;;;5.00;99.90;;;;;;5092644;28;20671;-79
2021/04/22 00:36:19;;;;;;;21.13;3.43;;;5.00;99.90;;;;;;5092532;28;20235;-80
2021/04/22 00:38:46;;;;;;;13.03;2.93;;;4.90;99.90;;;;;;5092719;28;20235;-81
2021/04/22 00:41:13;;;;;;;25.00;3.27;;;4.90;99.90;;;;;;5092266;28;20330;-79
2021/04/22 00:43:40;;;;;;;18.37;2.47;;;4.90;99.90;;;;;;5092556;28;20196;-79
2021/04/22 00:46:06;;;;;;;18.03;2.93;;;4.90;99.90;;;;;;5092500;28;20200;-79
2021/04/22 00:48:33;;;;;;;19.27;3.20;;;4.80;99.90;;;;;;5094080;28;20225;-79
2021/04/22 00:50:59;;;;;;;21.73;2.77;;;4.70;99.90;;;;;;5096300;28;20286;-79
2021/04/22 00:53:26;;;;;;;9.37;2.50;;;4.70;99.90;;;;;;5096088;28;20422;-79
2021/04/22 00:55:55;;;;;;;15.87;2.73;;;4.70;99.90;;;;;;5096004;28;20531;-79
2021/04/22 00:58:21;;;;;;;16.67;3.37;;;4.60;99.90;;;;;;5096075;28;20569;-78
2021/04/22 01:00:55;;;;;;;15.80;2.50;;;4.60;99.90;;;;;;5096113;28;20282;-79
2021/04/22 01:03:23;;;;;;;17.50;3.07;;;4.60;99.90;;;;;;5096175;28;20287;-81
2021/04/22 01:05:51;;;;;;;11.03;2.80;;;4.60;99.90;;;;;;5096084;28;20213;-79
2021/04/22 01:08:18;;;;;;;24.33;3.20;;;4.60;99.90;;;;;;5095823;28;20667;-80
2021/04/22 01:10:44;;;;;;;18.00;3.07;;;4.50;99.90;;;;;;5096199;28;20418;-81
2021/04/22 01:13:12;;;;;;;22.00;2.50;;;4.50;99.90;;;;;;5096167;28;20286;-80
2021/04/22 01:15:39;;;;;;;21.37;3.40;;;4.50;99.90;;;;;;5095952;28;20208;-82
2021/04/22 01:18:07;;;;;;;16.13;2.73;;;4.40;99.90;;;;;;5095839;28;20592;-81
2021/04/22 01:20:37;;;;;;;21.43;2.43;;;4.50;99.90;;;;;;5095732;28;20579;-79
2021/04/22 01:23:05;;;;;;;14.80;2.93;;;4.50;99.90;;;;;;5095420;28;20323;-80
2021/04/22 01:25:33;;;;;;;16.80;2.93;;;4.50;99.90;;;;;;5095537;28;20287;-79
2021/04/22 01:28:00;;;;;;;17.23;3.13;;;4.50;99.90;;;;;;5095690;28;20411;-80
2021/04/22 01:30:30;;;;;;;14.63;2.83;;;4.40;99.90;;;;;;5095476;28;20616;-80
2021/04/22 01:32:57;;;;;;;24.03;3.00;;;4.30;99.90;;;;;;5095743;28;20326;-80
2021/04/22 01:35:26;;;;;;;23.57;3.33;;;4.30;99.90;;;;;;5095660;28;20284;-80
2021/04/22 01:37:53;;;;;;;17.80;2.97;;;4.30;99.90;;;;;;5095838;28;20284;-83
2021/04/22 01:40:21;;;;;;;25.30;3.67;;;4.20;99.90;;;;;;5095778;28;20549;-80
2021/04/22 01:42:48;;;;;;;21.53;3.17;;;4.20;99.90;;;;;;5095542;28;20200;-79
2021/04/22 01:45:15;;;;;;;18.20;3.40;;;4.20;99.90;;;;;;5095367;28;20247;-82
2021/04/22 01:47:43;;;;;;;26.63;2.90;;;4.10;99.90;;;;;;5095288;28;20354;-79
2021/04/22 01:50:13;;;;;;;20.90;3.30;;;4.10;99.90;;;;;;5095177;28;20229;-80
2021/04/22 01:52:41;;;;;;;23.70;3.93;;;4.10;99.90;;;;;;5095490;28;20317;-79
2021/04/22 01:55:11;;;;;;;17.63;2.60;;;4.10;99.90;;;;;;5095073;28;20622;-79
2021/04/22 01:57:38;;;;;;;21.57;3.80;;;4.00;99.90;;;;;;5095091;28;20212;-80
2021/04/22 02:00:10;;;;;;;18.67;2.90;;;4.00;99.90;;;;;;5094529;28;20616;-81
2021/04/22 02:02:37;;;;;;;19.03;3.50;;;4.00;99.90;;;;;;5094590;28;20206;-81
2021/04/22 02:05:05;;;;;;;19.53;3.00;;;4.00;99.90;;;;;;5094673;28;20197;-79
2021/04/22 02:07:31;;;;;;;21.83;3.53;;;3.90;99.90;;;;;;5094617;28;20273;-82
2021/04/22 02:09:57;;;;;;;23.60;2.93;;;3.90;99.90;;;;;;5094647;28;20201;-81
2021/04/22 02:12:24;;;;;;;18.83;3.50;;;3.80;99.90;;;;;;5094575;28;20643;-82
2021/04/22 02:14:51;;;;;;;22.87;3.00;;;3.80;99.90;;;;;;5094562;28;20634;-79
2021/04/22 02:17:18;;;;;;;17.80;3.27;;;3.90;99.90;;;;;;5094378;28;20361;-81
2021/04/22 02:19:44;;;;;;;17.17;2.87;;;3.90;99.90;;;;;;5094610;28;20231;-80
2021/04/22 02:22:11;;;;;;;14.07;3.07;;;3.80;99.90;;;;;;5094988;28;20290;-83
2021/04/22 02:24:37;;;;;;;23.80;3.50;;;3.80;99.90;;;;;;5094467;28;20295;-81
2021/04/22 02:27:04;;;;;;;21.03;3.67;;;3.80;99.90;;;;;;5094483;28;20221;-80
2021/04/22 02:29:31;;;;;;;19.97;3.27;;;3.70;99.90;;;;;;5094647;28;20235;-81
2021/04/22 02:31:58;;;;;;;23.93;4.07;;;3.70;99.90;;;;;;5094479;28;20670;-80
2021/04/22 02:34:24;;;;;;;19.33;3.20;;;3.80;99.90;;;;;;5094716;28;20292;-82
2021/04/22 02:36:51;;;;;;;27.90;3.60;;;3.70;99.90;;;;;;5094534;28;20200;-80
2021/04/22 02:39:17;;;;;;;20.13;3.40;;;3.70;99.90;;;;;;5094215;28;20284;-80
2021/04/22 02:41:44;;;;;;;24.10;3.10;;;3.70;99.90;;;;;;5094522;28;20224;-80
2021/04/22 02:44:10;;;;;;;21.60;3.30;;;3.70;99.90;;;;;;5094311;28;20299;-80
2021/04/22 02:46:36;;;;;;;24.70;3.30;;;3.60;99.90;;;;;;5093973;28;20191;-80
2021/04/22 02:49:04;;;;;;;15.30;2.77;;;3.70;99.90;;;;;;5094646;28;20659;-81
2021/04/22 02:51:30;;;;;;;25.63;3.47;;;3.60;99.90;;;;;;5094277;28;20220;-81
2021/04/22 02:53:57;;;;;;;17.77;3.13;;;3.60;99.90;;;;;;5094105;28;20264;-82
2021/04/22 02:56:23;;;;;;;21.83;3.90;;;3.60;99.90;;;;;;5093782;28;20355;-82
2021/04/22 02:58:49;;;;;;;21.87;3.83;;;3.60;99.90;;;;;;5093806;28;20299;-79
2021/04/22 03:01:16;;;;;;;21.20;3.37;;;3.60;99.90;;;;;;5093934;28;20205;-80
2021/04/22 03:03:42;;;;;;;20.40;2.90;;;3.50;99.90;;;;;;5093931;28;20250;-81
2021/04/22 03:06:09;;;;;;;17.03;3.50;;;3.50;99.90;;;;;;5093454;28;20203;-82
2021/04/22 03:08:36;;;;;;;18.97;3.73;;;3.60;99.90;;;;;;5093598;28;20580;-80
2021/04/22 03:11:02;;;;;;;22.03;3.57;;;3.60;99.90;;;;;;5093130;28;20629;-82
2021/04/22 03:13:29;;;;;;;18.97;3.40;;;3.50;99.90;;;;;;5093673;28;20202;-80
2021/04/22 03:15:55;;;;;;;27.70;4.13;;;3.50;99.90;;;;;;5093751;28;20225;-81
2021/04/22 03:18:21;;;;;;;23.30;3.70;;;3.50;99.90;;;;;;5093644;28;20290;-82
2021/04/22 03:20:48;;;;;;;17.77;3.80;;;3.50;99.90;;;;;;5093411;28;20300;-80
2021/04/22 03:23:15;;;;;;;27.60;3.30;;;3.50;99.90;;;;;;5093407;28;20210;-80
2021/04/22 03:25:41;;;;;;;21.67;3.20;;;3.50;99.90;;;;;;5093446;28;20202;-83
2021/04/22 03:28:08;;;;;;;31.87;4.13;;;3.40;99.90;;;;;;5093094;28;20588;-80
2021/04/22 03:30:35;;;;;;;18.40;3.57;;;3.40;99.90;;;;;;5093526;28;20404;-80
2021/04/22 03:33:02;;;;;;;24.80;4.10;;;3.50;99.90;;;;;;5093463;28;20202;-80
2021/04/22 03:35:28;;;;;;;19.07;3.83;;;3.40;99.90;;;;;;5093395;28;20203;-79
2021/04/22 03:37:55;;;;;;;18.10;3.20;;;3.40;99.90;;;;;;5093385;28;20615;-80
2021/04/22 03:40:24;;;;;;;20.87;4.20;;;3.30;99.90;;;;;;5094638;28;20207;-83
2021/04/22 03:42:51;;;;;;;26.47;4.23;;;3.40;99.90;;;;;;5093759;28;20204;-79
2021/04/22 03:45:18;;;;;;;22.50;3.57;;;3.40;99.90;;;;;;5093545;28;20261;-79
2021/04/22 03:47:45;;;;;;;23.03;3.10;;;3.30;99.90;;;;;;5093146;28;20325;-81
2021/04/22 03:50:14;;;;;;;19.60;3.77;;;3.30;99.90;;;;;;5092943;28;20652;-80
2021/04/22 03:52:41;;;;;;;21.83;4.43;;;3.20;99.90;;;;;;5092945;28;20286;-82
2021/04/22 03:55:09;;;;;;;18.83;3.50;;;3.20;99.90;;;;;;5092768;28;20223;-79
2021/04/22 03:57:37;;;;;;;21.27;4.07;;;3.10;99.90;;;;;;5093084;28;20202;-79
2021/04/22 04:00:05;;;;;;;24.03;4.10;;;3.10;99.90;;;;;;5093154;28;20200;-81
2021/04/22 04:02:31;;;;;;;17.23;3.97;;;3.20;99.90;;;;;;5092948;28;20316;-80
2021/04/22 04:04:57;;;;;;;15.67;3.10;;;3.30;99.90;;;;;;5093165;28;20207;-80
2021/04/22 04:07:24;;;;;;;16.40;3.73;;;3.30;99.90;;;;;;5092768;28;20642;-79
2021/04/22 04:09:50;;;;;;;20.83;3.40;;;3.30;99.90;;;;;;5092583;28;20201;-82
2021/04/22 04:12:16;;;;;;;29.13;4.10;;;3.30;99.90;;;;;;5093039;28;20290;-80
2021/04/22 04:14:44;;;;;;;20.63;4.17;;;3.30;99.90;;;;;;5093211;28;20295;-82
2021/04/22 04:17:10;;;;;;;20.43;4.07;;;3.30;99.90;;;;;;5092786;28;20204;-79
2021/04/22 04:19:37;;;;;;;19.83;3.60;;;3.30;99.90;;;;;;5092665;28;20200;-79
2021/04/22 04:22:03;;;;;;;17.83;3.80;;;3.30;99.90;;;;;;5093615;28;20250;-81
2021/04/22 04:24:30;;;;;;;28.70;4.50;;;3.30;99.90;;;;;;5096835;28;20290;-79
2021/04/22 04:26:56;;;;;;;22.67;4.60;;;3.30;99.90;;;;;;5097215;28;20711;-79
2021/04/22 04:29:22;;;;;;;17.73;3.83;;;3.30;99.90;;;;;;5096544;28;20291;-80
2021/04/22 04:31:50;;;;;;;22.90;4.43;;;3.30;99.90;;;;;;5096842;28;20206;-80
2021/04/22 04:34:16;;;;;;;19.93;3.87;;;3.30;99.90;;;;;;5096767;28;20204;-79
2021/04/22 04:36:46;;;;;;;24.80;3.70;;;3.20;99.90;;;;;;5096565;28;20232;-82
2021/04/22 04:39:14;;;;;;;29.07;4.10;;;3.10;99.90;;;;;;5096541;28;20249;-81
2021/04/22 04:41:41;;;;;;;24.70;4.57;;;3.10;99.90;;;;;;5096623;28;20199;-79
2021/04/22 04:44:08;;;;;;;15.20;4.07;;;3.10;99.90;;;;;;5096421;28;20199;-79
2021/04/22 04:46:35;;;;;;;20.20;4.60;;;3.20;99.90;;;;;;5083654;28;20342;-80
2021/04/22 04:49:03;;;;;;;22.80;4.20;;;3.20;99.90;;;;;;5087144;28;20665;-83
2021/04/22 04:51:30;;;;;;;22.90;3.90;;;3.30;99.90;;;;;;5091361;28;20280;-79
2021/04/22 04:53:56;;;;;;;24.17;4.07;;;3.30;99.90;;;;;;5083950;28;20206;-80
2021/04/22 04:56:22;;;;;;;18.57;4.37;;;3.30;99.90;;;;;;5081763;28;20193;-80
2021/04/22 04:58:49;;;;;;;31.90;5.00;;;3.30;99.90;;;;;;5080433;28;20630;-79
2021/04/22 05:01:17;;;;;;;26.40;4.60;;;3.30;99.90;;;;;;5095630;28;20200;-81
2021/04/22 05:03:43;;;;;;;22.53;4.47;;;3.30;99.90;;;;;;5095786;28;20202;-80
2021/04/22 05:06:11;;;;;;;21.30;4.57;;;3.40;99.90;;;;;;5095936;28;20207;-81
2021/04/22 05:08:37;;;;;;;24.53;4.30;;;3.40;99.90;;;;;;5095989;28;20224;-80
2021/04/22 05:11:04;;;;;;;30.43;4.17;;;3.30;99.90;;;;;;5096001;28;20287;-79
2021/04/22 05:13:31;;;;;;;20.60;4.07;;;3.40;99.90;;;;;;5079772;28;20299;-80
2021/04/22 05:15:59;;;;;;;22.77;4.57;;;3.30;99.90;;;;;;5084222;28;20204;-80
2021/04/22 05:18:26;;;;;;;25.57;4.57;;;3.30;99.90;;;;;;5083100;28;20193;-80
2021/04/22 05:20:52;;;;;;;29.47;5.13;;;3.40;99.90;;;;;;5085665;28;20214;-78
2021/04/22 05:23:20;;;;;;;21.47;4.67;;;3.50;99.90;;;;;;5082060;28;20540;-79
2021/04/22 05:25:47;;;;;;;25.63;4.50;;;3.50;99.90;;;;;;5085763;28;20649;-81
2021/04/22 05:28:13;;;;;;;20.27;4.47;;;3.50;99.90;;;;;;5084584;28;20309;-79
2021/04/22 05:30:41;;;;;;;14.97;4.60;;;3.60;99.90;;;;;;5084431;28;20589;-79
2021/04/22 05:33:08;;;;;;;22.20;4.53;;;3.80;99.90;;;;;;5085347;28;20192;-81
2021/04/22 05:35:35;;;;;;;28.30;5.23;;;3.80;99.90;;;;;;5084164;28;20193;-80
2021/04/22 05:38:02;;;;;;;24.90;5.23;;;3.90;99.90;;;;;;5094070;28;20234;-80
2021/04/22 05:40:30;;;;;;;25.93;5.23;;;3.90;99.90;;;;;;5091998;28;20283;-81
2021/04/22 05:42:57;;;;;;;24.43;5.47;;;4.10;99.90;;;;;;5095134;28;20342;-80
2021/04/22 05:45:24;;;;;;;23.20;4.33;;;4.40;99.90;;;;;;5077140;28;20300;-80
2021/04/22 05:47:50;;;;;;;22.20;4.23;;;4.30;99.90;;;;;;5095236;28;20617;-81
2021/04/22 05:50:18;;;;;;;18.20;4.60;;;4.20;99.90;;;;;;5096029;28;20233;-81
2021/04/22 05:52:45;;;;;;;25.33;5.40;;;4.20;99.90;;;;;;5096588;28;20204;-82
2021/04/22 05:55:13;;;;;;;26.20;5.50;;;4.30;99.90;;;;;;5095488;28;20740;-83
2021/04/22 05:57:40;;;;;;;21.60;5.37;;;4.40;99.90;;;;;;5084656;28;20697;-82
2021/04/22 06:00:10;;;;;;;25.97;4.63;;;4.50;99.90;;;;;;5077606;28;20216;-83
2021/04/22 06:02:37;;;;;;;24.60;4.57;;;4.60;99.90;;;;;;5090949;28;20645;-80
2021/04/22 06:05:04;;;;;;;18.10;4.77;;;4.60;99.90;;;;;;5094204;28;20204;-80
2021/04/22 06:07:31;;;;;;;22.53;4.27;;;4.80;99.90;;;;;;5094261;28;20302;-81
2021/04/22 06:09:57;;;;;;;23.37;4.77;;;4.70;99.90;;;;;;5094744;28;20378;-76
2021/04/22 06:12:23;;;;;;;24.57;5.20;;;5.00;99.90;;;;;;5077470;28;20213;-81
2021/04/22 06:14:51;;;;;;;29.67;4.57;;;4.90;99.90;;;;;;5073200;28;20205;-74
2021/04/22 06:17:17;;;;;;;20.60;4.60;;;5.10;99.90;;;;;;5073937;28;20291;-83
2021/04/22 06:19:44;;;;;;;24.80;4.93;;;5.20;99.90;;;;;;5073421;28;20287;-81
2021/04/22 06:22:10;;;;;;;23.13;4.50;;;5.40;99.90;;;;;;5089482;28;20578;-82
2021/04/22 06:24:37;;;;;;;26.17;4.80;;;5.50;99.90;;;;;;5091739;28;20294;-81
2021/04/22 06:27:03;;;;;;;24.93;5.43;;;5.60;99.90;;;;;;5092278;28;20232;-83
2021/04/22 06:29:30;;;;;;;21.17;4.53;;;5.80;99.90;;;;;;5091846;28;20200;-83
2021/04/22 06:32:00;;;;;;;32.47;5.77;;;6.00;99.90;;;;;;5091925;28;20634;-82
2021/04/22 06:34:27;;;;;;;21.93;4.80;;;6.10;99.90;;;;;;5091830;28;20349;-82
2021/04/22 06:36:53;;;;;;;21.70;5.00;;;5.90;99.90;;;;;;5076095;28;20261;-80
2021/04/22 06:39:19;;;;;;;22.93;4.80;;;6.00;99.90;;;;;;5073256;28;20196;-82
2021/04/22 06:41:46;;;;;;;17.03;4.40;;;6.20;99.90;;;;;;5077286;28;20278;-80
2021/04/22 06:44:12;;;;;;;22.90;4.57;;;6.20;99.90;;;;;;5080388;28;20291;-80
2021/04/22 06:46:39;;;;;;;21.33;4.70;;;6.20;99.90;;;;;;5075570;28;20286;-80
2021/04/22 06:49:06;;;;;;;20.73;5.00;;;6.10;99.90;;;;;;5073199;28;20262;-80
2021/04/22 06:51:33;;;;;;;25.27;5.70;;;6.10;99.90;;;;;;5079607;28;20208;-79
2021/04/22 06:54:00;;;;;;;19.93;4.70;;;6.10;99.90;;;;;;5085237;28;20203;-80
2021/04/22 06:56:26;;;;;;;17.77;4.63;;;6.40;99.90;;;;;;5072994;28;20296;-80
2021/04/22 06:58:54;;;;;;;20.30;5.07;;;6.50;99.90;;;;;;5073647;28;20205;-80
2021/04/22 07:01:20;;;;;;;19.97;5.00;;;6.50;99.90;;;;;;5072808;28;20651;-82
2021/04/22 07:03:47;;;;;;;25.50;5.67;;;6.50;99.90;;;;;;5073028;28;20240;-81
2021/04/22 07:06:14;;;;;;;26.47;5.13;;;6.70;99.90;;;;;;5074412;28;20369;-80
2021/04/22 07:08:41;;;;;;;21.07;4.83;;;7.00;99.90;;;;;;5082432;28;20293;-80
2021/04/22 07:11:08;;;;;;;20.30;4.73;;;7.20;99.90;;;;;;5072202;28;20205;-79
2021/04/22 07:13:34;;;;;;;18.57;4.47;;;7.30;99.90;;;;;;5072427;28;20633;-79
2021/04/22 07:16:01;;;;;;;17.13;4.63;;;7.20;99.90;;;;;;5072777;28;20306;-79
2021/04/22 07:18:27;;;;;;;32.10;5.60;;;7.30;99.90;;;;;;5072924;28;20203;-80
2021/04/22 07:20:54;;;;;;;20.83;4.60;;;7.80;99.90;;;;;;5073442;28;20292;-79
2021/04/22 07:23:21;;;;;;;19.57;4.27;;;8.00;99.90;;;;;;5092566;28;20725;-80
2021/04/22 07:25:48;;;;;;;18.53;4.40;;;8.00;99.90;;;;;;5092594;28;20199;-79
2021/04/22 07:28:15;;;;;;;25.63;3.97;;;7.90;99.90;;;;;;5092643;28;20220;-80
2021/04/22 07:30:42;;;;;;;14.80;4.20;;;7.90;99.90;;;;;;5092774;28;20214;-80
2021/04/22 07:33:10;;;;;;;17.00;3.70;;;8.10;99.90;;;;;;5088566;28;20231;-80
2021/04/22 07:35:37;;;;;;;18.90;3.40;;;8.30;99.90;;;;;;5078944;28;20281;-79
2021/04/22 07:38:05;;;;;;;12.93;3.70;;;8.50;99.90;;;;;;5091502;28;20625;-80
2021/04/22 07:40:33;;;;;;;29.67;4.30;;;8.40;99.90;;;;;;5073135;28;20307;-79
2021/04/22 07:43:00;;;;;;;22.47;3.93;;;8.50;99.90;;;;;;5072577;28;20211;-80
2021/04/22 07:45:29;;;;;;;13.23;3.50;;;8.40;99.90;;;;;;5075326;28;20737;-81
2021/04/22 07:47:56;;;;;;;20.37;3.90;;;8.50;99.90;;;;;;5093290;28;20224;-80
2021/04/22 07:50:24;;;;;;;20.63;4.03;;;8.40;99.90;;;;;;5093236;28;20309;-81
2021/04/22 07:52:50;;;;;;;22.03;4.13;;;8.40;99.90;;;;;;5092134;28;20298;-80
2021/04/22 07:55:19;;;;;;;19.80;3.80;;;8.50;99.90;;;;;;5092122;28;20251;-80
2021/04/22 07:57:49;;;;;;;23.37;4.03;;;8.40;99.90;;;;;;5091979;28;20296;-80
2021/04/22 08:00:19;;;;;;;21.63;3.70;;;8.30;99.90;;;;;;5087287;28;20204;-80
2021/04/22 08:02:47;;;;;;;13.33;3.17;;;8.40;99.90;;;;;;5088399;28;20594;-81
2021/04/22 08:05:15;;;;;;;17.13;3.43;;;8.50;99.90;;;;;;5092084;28;20699;-81
2021/04/22 08:07:43;;;;;;;13.43;3.03;;;8.40;99.90;;;;;;5091448;28;20213;-80
2021/04/22 08:10:12;;;;;;;14.97;3.83;;;8.60;99.90;;;;;;5092110;28;20195;-81
2021/04/22 08:12:40;;;;;;;21.97;4.00;;;8.60;99.90;;;;;;5092114;28;20200;-80
2021/04/22 08:15:10;;;;;;;16.00;3.27;;;8.60;99.90;;;;;;5073962;28;20209;-81
2021/04/22 08:17:37;;;;;;;11.13;2.70;;;8.60;99.90;;;;;;5079949;28;20205;-80
2021/04/22 08:20:06;;;;;;;13.53;3.10;;;8.70;99.90;;;;;;5071571;28;20204;-81
2021/04/22 08:22:36;;;;;;;12.43;2.73;;;9.50;99.90;;;;;;5078063;28;20209;-80
2021/04/22 08:25:04;;;;;;;17.60;3.57;;;10.70;99.90;;;;;;5074258;28;20564;-80
2021/04/22 08:27:31;;;;;;;13.97;3.60;;;11.70;99.90;;;;;;5086713;28;20216;-80
2021/04/22 08:29:57;;;;;;;13.73;3.13;;;12.40;99.90;;;;;;5083040;28;20209;-79
2021/04/22 08:32:25;;;;;;;18.50;4.23;;;12.30;99.90;;;;;;5085288;28;20254;-79
2021/04/22 08:34:52;;;;;;;18.63;3.57;;;13.00;99.90;;;;;;5080846;28;20254;-79
2021/04/22 08:37:18;;;;;;;16.17;3.23;;;13.40;99.90;;;;;;5091755;28;20218;-79
2021/04/22 08:39:45;;;;;;;16.13;3.67;;;13.60;99.90;;;;;;5091837;28;20237;-79
2021/04/22 08:42:12;;;;;;;16.07;3.33;;;13.40;99.90;;;;;;5092346;28;20285;-79
2021/04/22 08:44:39;;;;;;;12.70;3.17;;;13.30;99.90;;;;;;5076992;28;20294;-79
2021/04/22 08:47:05;;;;;;;13.53;3.57;;;13.00;99.90;;;;;;5071731;28;20238;-79
2021/04/22 08:49:33;;;;;;;18.93;4.00;;;13.20;99.90;;;;;;5071595;28;20242;-79
2021/04/22 08:52:00;;;;;;;17.53;3.70;;;13.40;99.90;;;;;;5081287;28;20236;-80
2021/04/22 08:54:27;;;;;;;13.37;3.10;;;14.00;99.90;;;;;;5090879;28;20577;-81
2021/04/22 08:56:53;;;;;;;12.23;3.23;;;14.60;99.90;;;;;;5091049;28;20203;-79
2021/04/22 08:59:20;;;;;;;17.10;3.87;;;14.60;99.90;;;;;;5091593;28;20230;-80
2021/04/22 09:01:47;;;;;;;14.07;3.90;;;14.90;99.90;;;;;;5091402;28;20221;-81
2021/04/22 09:04:13;;;;;;;13.73;3.93;;;15.40;99.90;;;;;;5091734;28;20194;-79
2021/04/22 09:06:41;;;;;;;19.70;3.47;;;14.90;99.90;;;;;;5091559;28;20692;-81
2021/04/22 09:09:08;;;;;;;16.40;4.03;;;14.80;99.90;;;;;;5089253;28;20246;-79
2021/04/22 09:11:43;;;;;;;10.53;3.43;;;14.80;99.90;;;;;;5095476;28;20224;-80
2021/04/22 09:14:14;;;;;;;11.53;3.70;;;15.90;99.90;;;;;;5095209;28;20283;-79
2021/04/22 09:16:40;;;;;;;14.47;4.03;;;16.40;99.90;;;;;;5095854;28;20283;-79
2021/04/22 09:19:10;;;;;;;15.63;3.67;;;15.20;99.90;;;;;;5095441;28;20301;-80
2021/04/22 09:21:43;;;;;;;11.13;2.93;;;14.40;99.90;;;;;;5094936;28;20198;-79
2021/04/22 09:24:13;;;;;;;14.03;4.10;;;14.20;99.90;;;;;;5094563;28;20199;-79
2021/04/22 09:26:43;;;;;;;18.77;3.60;;;14.50;99.90;;;;;;5095096;28;20411;-78
2021/04/22 09:29:11;;;;;;;13.23;3.63;;;15.80;99.90;;;;;;5094458;28;20226;-80
2021/04/22 09:31:38;;;;;;;13.37;3.57;;;16.10;99.90;;;;;;5089078;28;20702;-80
2021/04/22 09:34:08;;;;;;;12.33;3.53;;;16.40;99.90;;;;;;5074073;28;20231;-81
2021/04/22 09:36:44;;;;;;;10.43;3.27;;;15.80;99.90;;;;;;5078119;28;20661;-78
2021/04/22 09:39:12;;;;;;;17.80;4.37;;;15.30;99.90;;;;;;5088450;28;20238;-79
2021/04/22 09:41:39;;;;;;;10.50;3.17;;;15.80;99.90;;;;;;5085893;28;20195;-79
2021/04/22 09:44:08;;;;;;;9.07;3.37;;;16.30;99.90;;;;;;5093738;28;20239;-78
2021/04/22 09:46:40;;;;;;;21.43;4.23;;;16.60;99.90;;;;;;5095125;28;20280;-81
2021/04/22 09:49:11;;;;;;;10.43;3.30;;;15.90;99.90;;;;;;5094981;28;20284;-80
2021/04/22 09:51:38;;;;;;;14.67;3.67;;;15.90;99.90;;;;;;5093778;28;20242;-82
2021/04/22 09:54:09;;;;;;;10.37;3.30;;;15.90;99.90;;;;;;5094459;28;20195;-80
2021/04/22 09:56:46;;;;;;;15.80;4.20;;;15.30;99.90;;;;;;5094797;28;20735;-82
2021/04/22 09:59:17;;;;;;;12.97;3.60;;;15.00;99.90;;;;;;5094489;28;20229;-80
2021/04/22 10:01:45;;;;;;;12.20;4.07;;;15.00;99.90;;;;;;5095164;28;20191;-80
2021/04/22 10:04:15;;;;;;;17.93;4.43;;;16.00;99.90;;;;;;5094246;28;20195;-79
2021/04/22 10:06:43;;;;;;;9.50;3.10;;;15.90;99.90;;;;;;5094017;28;20219;-80
2021/04/22 10:09:11;;;;;;;16.87;3.93;;;16.50;99.90;;;;;;5094311;28;20237;-79
2021/04/22 10:11:46;;;;;;;18.43;4.30;;;16.90;99.90;;;;;;5094695;28;20298;-79
2021/04/22 10:14:12;;;;;;;17.97;4.00;;;17.10;99.90;;;;;;5094748;28;20233;-79
2021/04/22 10:16:42;;;;;;;11.90;4.13;;;17.10;99.90;;;;;;5082587;28;20207;-80
2021/04/22 10:19:19;;;;;;;10.43;3.50;;;17.00;99.90;;;;;;5074276;28;20196;-79
2021/04/22 10:21:46;;;;;;;25.10;4.33;;;16.90;99.90;;;;;;5092496;28;20202;-79
2021/04/22 10:24:15;;;;;;;17.80;4.27;;;16.20;99.90;;;;;;5074503;28;20282;-78
2021/04/22 10:26:42;;;;;;;14.67;4.33;;;16.50;99.90;;;;;;5073908;28;20196;-79
2021/04/22 10:29:10;;;;;;;15.47;4.23;;;15.60;99.90;;;;;;5073715;28;20784;-80
2021/04/22 10:31:37;;;;;;;13.03;4.10;;;16.00;99.90;;;;;;5081132;28;20256;-79
2021/04/22 10:34:08;;;;;;;13.73;4.57;;;16.00;99.90;;;;;;5094291;28;20190;-79
2021/04/22 10:36:36;;;;;;;13.23;4.47;;;16.30;99.90;;;;;;5093655;28;20198;-80
2021/04/22 10:39:05;;;;;;;14.23;4.13;;;16.50;99.90;;;;;;5095073;28;20198;-78
2021/04/22 10:41:35;;;;;;;15.13;3.87;;;17.20;99.90;;;;;;5094218;28;20617;-78
2021/04/22 10:44:03;;;;;;;18.13;4.90;;;17.70;99.90;;;;;;5095878;28;20605;-78
2021/04/22 10:46:31;;;;;;;14.47;4.20;;;17.20;99.90;;;;;;5095505;28;20631;-80
2021/04/22 10:48:58;;;;;;;16.07;4.50;;;17.10;99.90;;;;;;5095811;28;20242;-79
2021/04/22 10:51:25;;;;;;;19.83;4.90;;;18.10;99.90;;;;;;5084458;28;20281;-79
2021/04/22 10:53:54;;;;;;;11.03;4.37;;;19.20;99.90;;;;;;5075494;28;20195;-80
2021/04/22 10:56:28;;;;;;;11.60;4.20;;;20.20;99.90;;;;;;5073898;28;20710;-79
2021/04/22 10:58:56;;;;;;;9.20;3.80;;;18.70;99.90;;;;;;5087337;28;20236;-80
2021/04/22 11:01:33;;;;;;;13.43;5.03;;;17.90;99.90;;;;;;5087332;28;20648;-80
2021/04/22 11:04:08;;;;;;;11.87;4.40;;;17.30;99.90;;;;;;5085865;28;20210;-79
2021/04/22 11:06:37;;;;;;;13.70;5.00;;;17.60;99.90;;;;;;5085696;28;20206;-80
2021/04/22 11:09:13;;;;;;;13.93;4.97;;;16.90;99.90;;;;;;5093617;28;20261;-79
2021/04/22 11:11:52;;;;;;;13.77;4.33;;;17.00;99.90;;;;;;5093049;28;20277;-79
2021/04/22 11:14:19;;;;;;;15.77;4.80;;;16.10;99.90;;;;;;5084125;28;20262;-80
2021/04/22 11:16:52;;;;;;;12.00;4.37;;;16.10;99.90;;;;;;5094162;28;20523;-79
2021/04/22 11:19:21;;;;;;;11.67;4.10;;;15.90;99.90;;;;;;5093307;28;20771;-78
2021/04/22 11:21:51;;;;;;;14.47;4.80;;;16.70;99.90;;;;;;5085030;28;20245;-80
2021/04/22 11:24:27;;;;;;;15.63;4.93;;;16.30;99.90;;;;;;5089819;28;20227;-79
2021/04/22 11:27:00;;;;;;;15.10;4.57;;;16.40;99.90;;;;;;5094314;28;21048;-77
2021/04/22 11:29:39;;;;;;;17.53;5.33;;;16.30;99.90;;;;;;5086002;28;20674;-78
2021/04/22 11:32:21;;;;;;;10.80;4.23;;;16.80;99.90;;;;;;5081194;28;20253;-78
2021/04/22 11:34:48;;;;;;;15.53;4.93;;;17.30;99.90;;;;;;5071290;28;20244;-77
2021/04/22 11:37:18;;;;;;;13.87;3.93;;;18.10;99.90;;;;;;5084115;28;20664;-81
2021/04/22 11:39:44;;;;;;;11.80;3.93;;;18.10;99.90;;;;;;5092527;28;20657;-77
2021/04/22 11:42:11;;;;;;;12.43;4.17;;;17.90;99.90;;;;;;5092273;28;20282;-79
2021/04/22 11:44:41;;;;;;;13.07;4.10;;;17.50;99.90;;;;;;5092368;28;20263;-73
2021/04/22 11:47:15;;;;;;;11.60;3.83;;;16.10;99.90;;;;;;5086979;28;20203;-81
2021/04/22 11:49:43;;;;;;;14.13;3.77;;;15.90;99.90;;;;;;5072554;28;20250;-79
2021/04/22 11:52:19;;;;;;;14.93;4.13;;;16.00;99.90;;;;;;5082483;28;20333;-78
2021/04/22 11:54:46;;;;;;;12.10;3.83;;;16.30;99.90;;;;;;5092901;28;20198;-79
2021/04/22 11:57:12;;;;;;;12.43;4.03;;;16.70;99.90;;;;;;5092475;28;20225;-81
2021/04/22 11:59:40;;;;;;;12.23;3.90;;;16.90;99.90;;;;;;5092756;28;20230;-79
2021/04/22 12:02:09;;;;;;;16.00;4.30;;;17.40;99.90;;;;;;5092523;28;20721;-79
2021/04/22 12:04:42;;;;;;;15.47;4.50;;;17.20;99.90;;;;;;5092600;28;20219;-79
2021/04/22 12:07:12;;;;;;;12.47;4.17;;;16.70;99.90;;;;;;5092584;28;20210;-83
2021/04/22 12:09:40;;;;;;;10.33;3.70;;;16.40;99.90;;;;;;5091699;28;20311;-79
2021/04/22 12:12:10;;;;;;;9.73;3.70;;;16.40;99.90;;;;;;5092306;28;20205;-81
2021/04/22 12:14:36;;;;;;;10.37;3.40;;;16.60;99.90;;;;;;5092821;28;20274;-82
2021/04/22 12:17:04;;;;;;;14.37;3.50;;;16.70;99.90;;;;;;5092805;28;20191;-79
2021/04/22 12:19:31;;;;;;;19.57;3.80;;;16.50;99.90;;;;;;5092424;28;20293;-79
2021/04/22 12:22:00;;;;;;;17.30;4.37;;;15.40;99.90;;;;;;5091724;28;20263;-80
2021/04/22 12:24:28;;;;;;;14.13;3.67;;;15.10;99.90;;;;;;5092644;28;20250;-79
2021/04/22 12:26:54;;;;;;;15.13;3.60;;;15.00;99.90;;;;;;5092365;28;20278;-79
2021/04/22 12:29:21;;;;;;;13.17;3.40;;;15.60;99.90;;;;;;5092411;28;20218;-80
2021/04/22 12:31:49;;;;;;;15.70;3.80;;;15.60;99.90;;;;;;5083657;28;20194;-78
2021/04/22 12:34:20;;;;;;;14.10;3.17;;;16.20;99.90;;;;;;5072191;28;20263;-79
2021/04/22 12:36:58;;;;;;;16.87;3.43;;;15.60;99.90;;;;;;5075243;28;20202;-79
2021/04/22 12:39:30;;;;;;;11.97;3.20;;;14.90;99.90;;;;;;5091317;28;20205;-80
2021/04/22 12:42:09;;;;;;;11.03;3.53;;;14.90;99.90;;;;;;5091630;28;20198;-79
2021/04/22 12:44:37;;;;;;;14.47;3.83;;;15.40;99.90;;;;;;5081059;28;20207;-80
2021/04/22 12:47:06;;;;;;;11.57;3.70;;;15.50;99.90;;;;;;5075885;28;20576;-82